Time,TemperatureF,DewpointF,PressureIn,WindDirection,WindDirectionDegrees,WindSpeedMPH,WindSpeedGustMPH,Humidity,HourlyPrecipIn,Conditions,Clouds,dailyrainin,SolarRadiationWatts/m^2,SoftwareType,DateUTC
2013-03-31 00:22:00,45.0,20.0,-100.00,NW,309,2.0,7.0,37,0.00,,,0.00,228.000000,,2013-03-31 00:22:00,
2013-03-31 00:32:00,45.0,20.0,-100.00,NW,309,2.0,7.0,37,0.00,,,0.00,228.000000,,2013-03-31 00:32:00,
2013-03-31 00:42:00,45.0,20.0,-100.00,NW,309,2.0,7.0,37,0.00,,,0.00,228.000000,,2013-03-31 00:42:00,
2013-03-31 00:52:00,45.0,20.0,-100.00,NW,309,2.0,7.0,37,0.00,,,0.00,228.000000,,2013-03-31 00:52:00,
2013-03-31 01:22:00,47.0,21.0,-100.00,NNW,338,3.0,6.0,36,0.00,,,0.00,305.000000,,2013-03-31 01:22:00,
2013-03-31 01:32:00,47.0,21.0,-100.00,NNW,338,3.0,6.0,36,0.00,,,0.00,305.000000,,2013-03-31 01:32:00,
2013-03-31 01:42:00,47.0,21.0,-100.00,NNW,338,3.0,6.0,36,0.00,,,0.00,305.000000,,2013-03-31 01:42:00,
2013-03-31 01:52:00,47.0,21.0,-100.00,NNW,338,3.0,6.0,36,0.00,,,0.00,305.000000,,2013-03-31 01:52:00,
2013-03-31 02:22:00,45.0,22.0,-100.00,South,191,5.0,13.0,39,0.00,,,0.00,345.000000,,2013-03-31 02:22:00,
2013-03-31 02:32:00,45.0,22.0,-100.00,South,191,5.0,13.0,39,0.00,,,0.00,345.000000,,2013-03-31 02:32:00,
2013-03-31 02:42:00,45.0,22.0,-100.00,South,191,5.0,13.0,39,0.00,,,0.00,345.000000,,2013-03-31 02:42:00,
2013-03-31 02:52:00,45.0,22.0,-100.00,South,191,5.0,13.0,39,0.00,,,0.00,345.000000,,2013-03-31 02:52:00,
2013-03-31 03:22:00,42.0,21.0,-100.00,South,187,3.0,11.0,42,0.00,,,0.00,115.000000,,2013-03-31 03:22:00,
2013-03-31 03:32:00,42.0,21.0,-100.00,South,187,3.0,11.0,42,0.00,,,0.00,115.000000,,2013-03-31 03:32:00,
2013-03-31 03:43:00,42.0,21.0,-100.00,South,187,3.0,11.0,42,0.00,,,0.00,115.000000,,2013-03-31 03:43:00,
2013-03-31 03:53:00,42.0,21.0,-100.00,South,187,3.0,11.0,42,0.00,,,0.00,115.000000,,2013-03-31 03:53:00,
2013-03-31 04:22:00,40.0,20.0,-100.00,SSW,192,4.0,12.0,44,0.00,,,0.00,35.000000,,2013-03-31 04:22:00,
2013-03-31 04:32:00,40.0,20.0,-100.00,SSW,192,4.0,12.0,44,0.00,,,0.00,35.000000,,2013-03-31 04:32:00,
2013-03-31 04:42:00,40.0,20.0,-100.00,SSW,192,4.0,12.0,44,0.00,,,0.00,35.000000,,2013-03-31 04:42:00,
2013-03-31 04:52:00,40.0,20.0,-100.00,SSW,192,4.0,12.0,44,0.00,,,0.00,35.000000,,2013-03-31 04:52:00,
2013-03-31 05:22:00,38.0,20.0,-100.00,SSE,161,1.0,9.0,47,0.00,,,0.00,3.000000,,2013-03-31 05:22:00,
2013-03-31 05:32:00,38.0,20.0,-100.00,SSE,161,1.0,9.0,47,0.00,,,0.00,3.000000,,2013-03-31 05:32:00,
2013-03-31 05:42:00,38.0,20.0,-100.00,SSE,161,1.0,9.0,47,0.00,,,0.00,3.000000,,2013-03-31 05:42:00,
2013-03-31 05:52:00,38.0,20.0,-100.00,SSE,161,1.0,9.0,47,0.00,,,0.00,3.000000,,2013-03-31 05:52:00,
2013-03-31 06:22:00,34.0,20.0,-100.00,WSW,246,0.0,3.0,57,0.00,,,0.00,0.000000,,2013-03-31 06:22:00,
2013-03-31 06:32:00,34.0,20.0,-100.00,WSW,246,0.0,3.0,57,0.00,,,0.00,0.000000,,2013-03-31 06:32:00,
2013-03-31 06:42:00,34.0,20.0,-100.00,WSW,246,0.0,3.0,57,0.00,,,0.00,0.000000,,2013-03-31 06:42:00,
2013-03-31 06:52:00,34.0,20.0,-100.00,WSW,246,0.0,3.0,57,0.00,,,0.00,0.000000,,2013-03-31 06:52:00,
2013-03-31 07:22:00,35.0,20.0,-100.00,South,187,2.0,6.0,55,0.00,,,0.00,0.000000,,2013-03-31 07:22:00,
2013-03-31 07:32:00,35.0,20.0,-100.00,South,187,2.0,6.0,55,0.00,,,0.00,0.000000,,2013-03-31 07:32:00,
2013-03-31 07:42:00,35.0,20.0,-100.00,South,187,2.0,6.0,55,0.00,,,0.00,0.000000,,2013-03-31 07:42:00,
2013-03-31 07:52:00,35.0,20.0,-100.00,South,187,2.0,6.0,55,0.00,,,0.00,0.000000,,2013-03-31 07:52:00,
2013-03-31 08:22:00,34.0,20.0,-100.00,WNW,287,2.0,6.0,55,0.00,,,0.00,0.000000,,2013-03-31 08:22:00,
2013-03-31 08:32:00,34.0,20.0,-100.00,WNW,287,2.0,6.0,55,0.00,,,0.00,0.000000,,2013-03-31 08:32:00,
2013-03-31 08:42:00,34.0,20.0,-100.00,WNW,287,2.0,6.0,55,0.00,,,0.00,0.000000,,2013-03-31 08:42:00,
2013-03-31 08:52:00,34.0,20.0,-100.00,WNW,287,2.0,6.0,55,0.00,,,0.00,0.000000,,2013-03-31 08:52:00,
2013-03-31 09:22:00,30.0,22.0,-100.00,South,182,1.0,3.0,73,0.00,,,0.00,0.000000,,2013-03-31 09:22:00,
2013-03-31 09:32:00,30.0,22.0,-100.00,South,182,1.0,3.0,73,0.00,,,0.00,0.000000,,2013-03-31 09:32:00,
2013-03-31 09:42:00,30.0,22.0,-100.00,South,182,1.0,3.0,73,0.00,,,0.00,0.000000,,2013-03-31 09:42:00,
2013-03-31 09:52:00,30.0,22.0,-100.00,South,182,1.0,3.0,73,0.00,,,0.00,0.000000,,2013-03-31 09:52:00,
2013-03-31 10:23:00,29.0,19.0,-100.00,SW,230,2.0,5.0,66,0.00,,,0.00,0.000000,,2013-03-31 10:23:00,
2013-03-31 10:32:00,29.0,19.0,-100.00,SW,230,2.0,5.0,66,0.00,,,0.00,0.000000,,2013-03-31 10:32:00,
2013-03-31 10:42:00,29.0,19.0,-100.00,SW,230,2.0,5.0,66,0.00,,,0.00,0.000000,,2013-03-31 10:42:00,
2013-03-31 10:52:00,29.0,19.0,-100.00,SW,230,2.0,5.0,66,0.00,,,0.00,0.000000,,2013-03-31 10:52:00,
2013-03-31 11:23:00,31.0,20.0,-100.00,North,354,1.0,8.0,63,0.00,,,0.00,0.000000,,2013-03-31 11:23:00,
2013-03-31 11:32:00,31.0,20.0,-100.00,North,354,1.0,8.0,63,0.00,,,0.00,0.000000,,2013-03-31 11:32:00,
2013-03-31 11:42:00,31.0,20.0,-100.00,North,354,1.0,8.0,63,0.00,,,0.00,0.000000,,2013-03-31 11:42:00,
2013-03-31 11:52:00,31.0,20.0,-100.00,North,354,1.0,8.0,63,0.00,,,0.00,0.000000,,2013-03-31 11:52:00,
2013-03-31 12:22:00,31.0,20.0,-100.00,West,272,1.0,5.0,63,0.00,,,0.00,0.000000,,2013-03-31 12:22:00,
2013-03-31 12:32:00,31.0,20.0,-100.00,West,272,1.0,5.0,63,0.00,,,0.00,0.000000,,2013-03-31 12:32:00,
2013-03-31 12:42:00,31.0,20.0,-100.00,West,272,1.0,5.0,63,0.00,,,0.00,0.000000,,2013-03-31 12:42:00,
2013-03-31 12:52:00,31.0,20.0,-100.00,West,272,1.0,5.0,63,0.00,,,0.00,0.000000,,2013-03-31 12:52:00,
2013-03-31 13:22:00,30.0,23.0,-100.00,South,177,0.0,3.0,74,0.00,,,0.00,0.000000,,2013-03-31 13:22:00,
2013-03-31 13:32:00,30.0,23.0,-100.00,South,177,0.0,3.0,74,0.00,,,0.00,0.000000,,2013-03-31 13:32:00,
2013-03-31 13:42:00,30.0,23.0,-100.00,South,177,0.0,3.0,74,0.00,,,0.00,0.000000,,2013-03-31 13:42:00,
2013-03-31 13:52:00,30.0,23.0,-100.00,South,177,0.0,3.0,74,0.00,,,0.00,0.000000,,2013-03-31 13:52:00,
2013-03-31 14:22:00,29.0,23.0,-100.00,South,174,1.0,2.0,78,0.00,,,0.00,0.000000,,2013-03-31 14:22:00,
2013-03-31 14:32:00,29.0,23.0,-100.00,South,174,1.0,2.0,78,0.00,,,0.00,0.000000,,2013-03-31 14:32:00,
2013-03-31 14:42:00,29.0,23.0,-100.00,South,174,1.0,2.0,78,0.00,,,0.00,0.000000,,2013-03-31 14:42:00,
2013-03-31 14:52:00,29.0,23.0,-100.00,South,174,1.0,2.0,78,0.00,,,0.00,0.000000,,2013-03-31 14:52:00,
2013-03-31 15:22:00,25.0,21.0,-100.00,South,188,1.0,3.0,83,0.00,,,0.00,1.000000,,2013-03-31 15:22:00,
2013-03-31 15:33:00,25.0,21.0,-100.00,South,188,1.0,3.0,83,0.00,,,0.00,1.000000,,2013-03-31 15:33:00,
2013-03-31 15:43:00,25.0,21.0,-100.00,South,188,1.0,3.0,83,0.00,,,0.00,1.000000,,2013-03-31 15:43:00,
2013-03-31 15:53:00,25.0,21.0,-100.00,South,188,1.0,3.0,83,0.00,,,0.00,1.000000,,2013-03-31 15:53:00,
2013-03-31 16:22:00,26.0,21.0,-100.00,WSW,240,0.0,2.0,80,0.00,,,0.00,25.000000,,2013-03-31 16:22:00,
2013-03-31 16:33:00,26.0,21.0,-100.00,WSW,240,0.0,2.0,80,0.00,,,0.00,25.000000,,2013-03-31 16:33:00,
2013-03-31 16:42:00,26.0,21.0,-100.00,WSW,240,0.0,2.0,80,0.00,,,0.00,25.000000,,2013-03-31 16:42:00,
2013-03-31 16:52:00,26.0,21.0,-100.00,WSW,240,0.0,2.0,80,0.00,,,0.00,25.000000,,2013-03-31 16:52:00,
2013-03-31 17:22:00,34.0,20.0,-100.00,ESE,122,1.0,2.0,57,0.00,,,0.00,138.000000,,2013-03-31 17:22:00,
2013-03-31 17:32:00,34.0,20.0,-100.00,ESE,122,1.0,2.0,57,0.00,,,0.00,138.000000,,2013-03-31 17:32:00,
2013-03-31 17:42:00,34.0,20.0,-100.00,ESE,122,1.0,2.0,57,0.00,,,0.00,138.000000,,2013-03-31 17:42:00,
2013-03-31 17:52:00,34.0,20.0,-100.00,ESE,122,1.0,2.0,57,0.00,,,0.00,138.000000,,2013-03-31 17:52:00,
2013-03-31 18:22:00,41.0,23.0,-100.00,ESE,115,1.0,4.0,48,0.00,,,0.00,318.000000,,2013-03-31 18:22:00,
2013-03-31 18:32:00,41.0,23.0,-100.00,ESE,115,1.0,4.0,48,0.00,,,0.00,318.000000,,2013-03-31 18:32:00,
2013-03-31 18:42:00,41.0,23.0,-100.00,ESE,115,1.0,4.0,48,0.00,,,0.00,318.000000,,2013-03-31 18:42:00,
2013-03-31 18:52:00,41.0,23.0,-100.00,ESE,115,1.0,4.0,48,0.00,,,0.00,318.000000,,2013-03-31 18:52:00,
2013-03-31 19:22:00,44.0,23.0,-100.00,NNW,335,2.0,4.0,44,0.00,,,0.00,475.000000,,2013-03-31 19:22:00,
2013-03-31 19:32:00,44.0,23.0,-100.00,NNW,335,2.0,4.0,44,0.00,,,0.00,475.000000,,2013-03-31 19:32:00,
2013-03-31 19:42:00,44.0,23.0,-100.00,NNW,335,2.0,4.0,44,0.00,,,0.00,475.000000,,2013-03-31 19:42:00,
2013-03-31 19:53:00,44.0,23.0,-100.00,NNW,335,2.0,4.0,44,0.00,,,0.00,475.000000,,2013-03-31 19:53:00,
2013-03-31 20:22:00,41.0,23.0,-100.00,North,10,2.0,5.0,48,-99.99,,,0.00,299.000000,,2013-03-31 20:22:00,
2013-03-31 20:33:00,41.0,23.0,-100.00,North,10,2.0,5.0,48,-99.99,,,0.00,299.000000,,2013-03-31 20:33:00,
2013-03-31 20:42:00,41.0,23.0,-100.00,North,10,2.0,5.0,48,-99.99,,,0.00,299.000000,,2013-03-31 20:42:00,
2013-03-31 20:52:00,41.0,23.0,-100.00,North,10,2.0,5.0,48,-99.99,,,0.00,299.000000,,2013-03-31 20:52:00,
2013-03-31 21:22:00,40.0,24.0,-100.00,North,5,2.0,6.0,52,0.00,,,0.00,264.000000,,2013-03-31 21:22:00,
2013-03-31 21:33:00,40.0,24.0,-100.00,North,5,2.0,6.0,52,0.00,,,0.00,264.000000,,2013-03-31 21:33:00,
2013-03-31 21:43:00,40.0,24.0,-100.00,North,5,2.0,6.0,52,0.00,,,0.00,264.000000,,2013-03-31 21:43:00,
2013-03-31 21:53:00,40.0,24.0,-100.00,North,5,2.0,6.0,52,0.00,,,0.00,264.000000,,2013-03-31 21:53:00,
2013-03-31 22:23:00,43.0,24.0,-100.00,SE,146,3.0,6.0,47,0.00,,,0.00,301.000000,,2013-03-31 22:23:00,
2013-03-31 22:33:00,43.0,24.0,-100.00,SE,146,3.0,6.0,47,0.00,,,0.00,301.000000,,2013-03-31 22:33:00,
2013-03-31 22:42:00,43.0,24.0,-100.00,SE,146,3.0,6.0,47,0.00,,,0.00,301.000000,,2013-03-31 22:42:00,
2013-03-31 22:52:00,43.0,24.0,-100.00,SE,146,3.0,6.0,47,0.00,,,0.00,301.000000,,2013-03-31 22:52:00,
2013-03-31 23:22:00,43.0,25.0,-100.00,ESE,107,5.0,9.0,49,0.00,,,0.00,452.000000,,2013-03-31 23:22:00,
2013-03-31 23:32:00,43.0,25.0,-100.00,ESE,107,5.0,9.0,49,0.00,,,0.00,452.000000,,2013-03-31 23:32:00,
2013-03-31 23:42:00,43.0,25.0,-100.00,ESE,107,5.0,9.0,49,0.00,,,0.00,452.000000,,2013-03-31 23:42:00,
2013-03-31 23:52:00,43.0,25.0,-100.00,ESE,107,5.0,9.0,49,0.00,,,0.00,452.000000,,2013-03-31 23:52:00,